Normandin, Canada
Current Conditions -  °F | °C
As of 11:00 AM on Wednesday 28 Jan 2015 (Local Time) from CYRJ Reporting Station
Few Clouds Few Clouds  
Wind Chill: -10°   Ceiling: Unl
Heat Index:   Visibility: 40mi
Dew Point: -15°   Wind: 8mph
Humidity: 43%   Direction: 310°NW
Pressure: 30.15"   Gusts: NA
Location:  48.83°N, 72.52°W
Report Text: CYRJ 281600Z 31007KT 40SM FEW220 M16/M26 A3015 RMK CI1 SLP229
Loading
Personal Weather Stations






























Interactive Weather Map New forecast layout! Learn more

10-Day Weather Forecast

Advertisements
Track Severe Weather on mobile